createdAt,value
2018-08-09T00:00:06.421Z,5.70
2018-08-09T00:01:06.426Z,5.90
2018-08-09T00:02:06.425Z,5.90
2018-08-09T00:03:06.418Z,6.30
2018-08-09T00:04:06.421Z,5.60
2018-08-09T00:05:06.419Z,5.90
2018-08-09T00:06:06.420Z,5.80
2018-08-09T00:07:06.415Z,6.40
2018-08-09T00:08:06.419Z,5.80
2018-08-09T00:09:06.412Z,6.90
2018-08-09T00:10:06.414Z,6.60
2018-08-09T00:11:06.413Z,5.80
2018-08-09T00:12:06.408Z,6.80
2018-08-09T00:13:06.416Z,6.70
2018-08-09T00:14:06.409Z,6.30
2018-08-09T00:15:06.410Z,5.80
2018-08-09T00:16:06.407Z,6.60
2018-08-09T00:17:06.406Z,6.10
2018-08-09T00:18:06.401Z,6.30
2018-08-09T00:19:06.405Z,6.40
2018-08-09T00:20:06.400Z,6.30
2018-08-09T00:21:06.397Z,6.50
2018-08-09T00:22:06.398Z,6.10
2018-08-09T00:23:06.399Z,6.20
2018-08-09T00:24:06.394Z,6.10
2018-08-09T00:25:06.390Z,6.10
2018-08-09T00:26:06.395Z,6.10
2018-08-09T00:27:06.392Z,5.40
2018-08-09T00:28:06.394Z,5.80
2018-08-09T00:29:06.391Z,5.60
2018-08-09T00:30:06.394Z,5.50
2018-08-09T00:31:06.388Z,5.80
2018-08-09T00:32:06.384Z,5.40
2018-08-09T00:33:06.384Z,6.00
2018-08-09T00:34:06.380Z,6.00
2018-08-09T00:35:06.379Z,5.80
2018-08-09T00:36:06.382Z,5.30
2018-08-09T00:37:06.375Z,5.10
2018-08-09T00:38:06.381Z,5.70
2018-08-09T00:39:06.375Z,5.10
2018-08-09T00:40:06.379Z,5.60
2018-08-09T00:41:06.382Z,5.50
2018-08-09T00:42:06.374Z,5.30
2018-08-09T00:43:06.380Z,5.80
2018-08-09T00:44:06.374Z,5.00
2018-08-09T00:45:06.369Z,5.60
2018-08-09T00:46:06.365Z,4.90
2018-08-09T00:47:06.364Z,5.60
2018-08-09T00:48:06.364Z,5.50
2018-08-09T00:49:06.367Z,5.30
2018-08-09T00:50:06.360Z,5.70
2018-08-09T00:51:06.359Z,5.90
2018-08-09T00:52:06.360Z,5.50
2018-08-09T00:53:06.355Z,5.50
2018-08-09T00:54:06.354Z,6.10
2018-08-09T00:55:06.354Z,5.30
2018-08-09T00:56:06.353Z,5.80
2018-08-09T00:57:06.348Z,5.70
2018-08-09T00:58:06.348Z,6.50
2018-08-09T00:59:06.353Z,5.80
2018-08-09T01:00:06.350Z,6.60
2018-08-09T01:01:06.347Z,5.70
2018-08-09T01:02:06.347Z,5.90
2018-08-09T01:03:06.344Z,5.90
2018-08-09T01:04:06.345Z,5.80
2018-08-09T01:05:06.340Z,6.30
2018-08-09T01:06:06.339Z,6.00
2018-08-09T01:07:06.338Z,6.00
2018-08-09T01:08:06.335Z,6.20
2018-08-09T01:09:06.338Z,6.00
2018-08-09T01:10:06.333Z,5.80
2018-08-09T01:11:06.331Z,5.70
2018-08-09T01:12:06.331Z,6.20
2018-08-09T01:13:06.327Z,5.80
2018-08-09T01:14:06.331Z,6.60
2018-08-09T01:15:06.329Z,6.30
2018-08-09T01:16:06.328Z,6.40
2018-08-09T01:17:06.321Z,7.10
2018-08-09T01:18:06.322Z,7.10
2018-08-09T01:19:06.321Z,7.00
2018-08-09T01:20:06.320Z,6.90
2018-08-09T01:21:06.317Z,7.60
2018-08-09T01:22:06.319Z,7.80
2018-08-09T01:23:06.315Z,7.50
2018-08-09T01:24:06.337Z,7.50
2018-08-09T01:25:06.341Z,7.20
2018-08-09T01:26:06.307Z,7.60
2018-08-09T01:27:06.308Z,7.60
2018-08-09T01:28:06.309Z,7.30
2018-08-09T01:29:06.303Z,8.00
2018-08-09T01:30:06.301Z,7.80
2018-08-09T01:31:06.303Z,7.80
2018-08-09T01:32:06.304Z,8.00
2018-08-09T01:33:06.302Z,7.00
2018-08-09T01:34:06.295Z,7.90
2018-08-09T01:35:06.298Z,7.50
2018-08-09T01:36:06.293Z,7.50
2018-08-09T01:37:06.290Z,7.30
2018-08-09T01:38:06.308Z,7.90
2018-08-09T01:39:06.289Z,8.40
2018-08-09T01:40:06.289Z,8.10
2018-08-09T01:41:06.286Z,7.60
2018-08-09T01:42:06.285Z,8.40
2018-08-09T01:43:06.281Z,7.70
2018-08-09T01:44:06.282Z,7.40
2018-08-09T01:45:06.280Z,6.90
2018-08-09T01:46:06.275Z,7.50
2018-08-09T01:47:06.272Z,7.40
2018-08-09T01:48:06.272Z,8.00
2018-08-09T01:49:06.270Z,8.10
2018-08-09T01:50:06.267Z,8.40
2018-08-09T01:51:06.266Z,8.30
2018-08-09T01:52:06.269Z,7.20
2018-08-09T01:53:06.262Z,7.50
2018-08-09T01:54:06.280Z,7.70
2018-08-09T01:55:06.261Z,8.00
2018-08-09T01:56:06.260Z,8.00
2018-08-09T01:57:06.258Z,7.80
2018-08-09T01:58:06.278Z,7.70
2018-08-09T01:59:06.281Z,7.20
2018-08-09T02:00:06.257Z,7.80
2018-08-09T02:01:06.252Z,8.10
2018-08-09T02:02:06.332Z,8.10
2018-08-09T02:03:06.244Z,7.90
2018-08-09T02:04:06.387Z,7.70
2018-08-09T02:05:06.355Z,7.60
2018-08-09T02:06:06.423Z,6.60
2018-08-09T02:07:06.242Z,8.00
2018-08-09T02:08:06.323Z,7.20
2018-08-09T02:09:06.241Z,8.10
2018-08-09T02:10:06.317Z,7.70
2018-08-09T02:11:06.230Z,8.20
2018-08-09T02:12:06.229Z,7.60
2018-08-09T02:13:06.229Z,7.50
2018-08-09T02:14:06.241Z,7.50
2018-08-09T02:15:06.223Z,7.50
2018-08-09T02:16:06.222Z,7.40
2018-08-09T02:17:06.218Z,7.30
2018-08-09T02:18:06.216Z,8.00
2018-08-09T02:19:06.216Z,7.20
2018-08-09T02:20:06.222Z,7.20
2018-08-09T02:21:06.211Z,7.50
2018-08-09T02:22:06.209Z,7.30
2018-08-09T02:23:06.209Z,7.60
2018-08-09T02:24:06.208Z,6.50
2018-08-09T02:25:06.207Z,8.00
2018-08-09T02:26:06.202Z,7.60
2018-08-09T02:27:06.200Z,7.60
2018-08-09T02:28:06.198Z,7.30
2018-08-09T02:29:06.199Z,7.10
2018-08-09T02:30:06.199Z,7.60
2018-08-09T02:31:06.198Z,7.10
2018-08-09T02:32:06.191Z,7.80
2018-08-09T02:33:06.194Z,7.70
2018-08-09T02:34:06.185Z,7.80
2018-08-09T02:35:06.187Z,7.60
2018-08-09T02:36:06.184Z,7.60
2018-08-09T02:37:06.184Z,7.20
2018-08-09T02:38:06.182Z,7.70
2018-08-09T02:39:06.178Z,7.50
2018-08-09T02:40:06.184Z,7.50
2018-08-09T02:41:06.173Z,7.20
2018-08-09T02:42:06.221Z,7.00
2018-08-09T02:43:06.169Z,6.90
2018-08-09T02:44:06.172Z,7.90
2018-08-09T02:45:06.164Z,7.90
2018-08-09T02:46:06.163Z,7.40
2018-08-09T02:47:06.166Z,7.80
2018-08-09T02:48:06.184Z,7.80
2018-08-09T02:49:06.161Z,7.80
2018-08-09T02:50:06.160Z,7.20
2018-08-09T02:51:06.160Z,7.60
2018-08-09T02:52:06.152Z,7.70
2018-08-09T02:53:06.148Z,7.60
2018-08-09T02:54:06.148Z,7.70
2018-08-09T02:55:06.147Z,8.40
2018-08-09T02:56:06.149Z,7.60
2018-08-09T02:57:06.146Z,7.60
2018-08-09T02:58:06.145Z,7.80
2018-08-09T02:59:06.139Z,7.40
2018-08-09T03:00:06.148Z,7.90
2018-08-09T03:01:06.134Z,7.80
2018-08-09T03:02:06.132Z,7.50
2018-08-09T03:03:06.132Z,6.90
2018-08-09T03:04:06.136Z,6.90
2018-08-09T03:05:06.126Z,6.60
2018-08-09T03:06:06.122Z,6.70
2018-08-09T03:07:06.121Z,7.10
2018-08-09T03:08:06.122Z,7.50
2018-08-09T03:09:06.121Z,6.70
2018-08-09T03:10:06.116Z,5.90
2018-08-09T03:11:06.114Z,6.80
2018-08-09T03:12:06.113Z,6.70
2018-08-09T03:13:06.114Z,6.50
2018-08-09T03:14:06.107Z,6.90
2018-08-09T03:15:06.104Z,6.60
2018-08-09T03:16:06.104Z,7.20
2018-08-09T03:17:06.099Z,6.10
2018-08-09T03:18:06.105Z,6.90
2018-08-09T03:19:06.096Z,6.90
2018-08-09T03:20:06.095Z,6.70
2018-08-09T03:21:06.098Z,7.00
2018-08-09T03:22:06.094Z,6.80
2018-08-09T03:23:06.088Z,7.00
2018-08-09T03:24:06.088Z,6.00
2018-08-09T03:25:06.084Z,6.50
2018-08-09T03:26:06.083Z,7.40
2018-08-09T03:27:06.079Z,6.40
2018-08-09T03:28:06.083Z,6.90
2018-08-09T03:29:06.080Z,6.80
2018-08-09T03:30:06.077Z,5.90
2018-08-09T03:31:06.076Z,6.70
2018-08-09T03:32:06.071Z,6.90
2018-08-09T03:33:06.068Z,6.80
2018-08-09T03:34:06.066Z,6.30
2018-08-09T03:35:06.062Z,6.40
2018-08-09T03:36:06.064Z,6.60
2018-08-09T03:37:06.063Z,6.10
2018-08-09T03:38:06.057Z,6.40
2018-08-09T03:39:06.055Z,6.50
2018-08-09T03:40:06.057Z,6.80
2018-08-09T03:41:06.053Z,6.60
2018-08-09T03:42:06.055Z,7.10
2018-08-09T03:43:06.045Z,7.10
2018-08-09T03:44:06.048Z,7.20
2018-08-09T03:45:06.043Z,6.90
2018-08-09T03:46:06.041Z,7.30
2018-08-09T03:47:06.037Z,7.20
2018-08-09T03:48:06.038Z,7.20
2018-08-09T03:49:06.034Z,6.70
2018-08-09T03:50:06.063Z,7.40
2018-08-09T03:51:06.037Z,7.50
2018-08-09T03:52:06.025Z,7.50
2018-08-09T03:53:06.026Z,6.90
2018-08-09T03:54:06.022Z,7.10
2018-08-09T03:55:06.019Z,7.70
2018-08-09T03:56:06.020Z,7.20
2018-08-09T03:57:06.025Z,7.40
2018-08-09T03:58:06.111Z,7.60
2018-08-09T03:59:06.011Z,7.90
2018-08-09T04:00:06.010Z,7.60
2018-08-09T04:01:06.006Z,7.40
2018-08-09T04:02:06.010Z,8.20
2018-08-09T04:03:06.001Z,7.30
2018-08-09T04:04:06.005Z,7.40
2018-08-09T04:05:05.995Z,7.80
2018-08-09T04:06:05.993Z,7.30
2018-08-09T04:07:05.997Z,7.20
2018-08-09T04:08:05.991Z,7.80
2018-08-09T04:09:05.986Z,7.30
2018-08-09T04:10:05.989Z,6.70
2018-08-09T04:11:05.983Z,7.70
2018-08-09T04:12:06.003Z,7.70
2018-08-09T04:13:05.983Z,7.60
2018-08-09T04:14:05.978Z,7.50
2018-08-09T04:15:05.974Z,7.50
2018-08-09T04:16:05.976Z,7.70
2018-08-09T04:17:05.971Z,7.30
2018-08-09T04:18:05.967Z,8.00
2018-08-09T04:19:05.965Z,7.80
2018-08-09T04:20:05.965Z,7.90
2018-08-09T04:21:05.959Z,7.10
2018-08-09T04:22:05.957Z,7.40
2018-08-09T04:23:05.954Z,7.60
2018-08-09T04:24:05.952Z,7.40
2018-08-09T04:25:05.953Z,7.60
2018-08-09T04:26:05.948Z,7.70
2018-08-09T04:27:05.946Z,7.20
2018-08-09T04:28:05.947Z,7.90
2018-08-09T04:29:05.946Z,7.70
2018-08-09T04:30:05.940Z,7.90
2018-08-09T04:31:05.936Z,7.20
2018-08-09T04:32:05.934Z,7.10
2018-08-09T04:33:05.941Z,7.00
2018-08-09T04:34:05.944Z,7.10
2018-08-09T04:35:05.929Z,7.90
2018-08-09T04:36:05.931Z,7.50
2018-08-09T04:37:05.928Z,8.00
2018-08-09T04:38:06.007Z,7.20
2018-08-09T04:39:05.918Z,7.30
2018-08-09T04:40:05.918Z,7.40
2018-08-09T04:41:05.913Z,7.50
2018-08-09T04:42:05.910Z,7.60
2018-08-09T04:43:05.912Z,7.60
2018-08-09T04:44:05.907Z,7.10
2018-08-09T04:45:05.908Z,6.90
2018-08-09T04:46:05.901Z,7.60
2018-08-09T04:47:05.904Z,6.70
2018-08-09T04:48:05.899Z,7.10
2018-08-09T04:49:05.895Z,7.10
2018-08-09T04:50:05.897Z,7.30
2018-08-09T04:51:05.890Z,7.10
2018-08-09T04:52:05.914Z,7.30
2018-08-09T04:53:05.886Z,7.40
2018-08-09T04:54:05.889Z,7.00
2018-08-09T04:55:05.887Z,7.30
2018-08-09T04:56:05.883Z,7.10
2018-08-09T04:57:05.886Z,7.10
2018-08-09T04:58:05.884Z,7.30
2018-08-09T04:59:05.877Z,7.00
2018-08-09T05:00:05.878Z,6.80
2018-08-09T05:01:05.878Z,6.70
2018-08-09T05:02:05.878Z,7.30
2018-08-09T05:03:05.876Z,7.20
2018-08-09T05:04:05.876Z,7.00
2018-08-09T05:05:05.873Z,6.50
2018-08-09T05:06:05.873Z,6.80
2018-08-09T05:07:05.873Z,6.70
2018-08-09T05:08:05.874Z,6.70
2018-08-09T05:09:05.881Z,7.00
2018-08-09T05:10:05.874Z,7.40
2018-08-09T05:11:05.895Z,6.60
2018-08-09T05:12:05.896Z,7.20
2018-08-09T05:13:05.898Z,6.50
2018-08-09T05:14:05.878Z,7.10
2018-08-09T05:15:05.879Z,6.90
2018-08-09T05:16:05.880Z,7.40
2018-08-09T05:17:05.884Z,7.20
2018-08-09T05:18:05.880Z,7.10
2018-08-09T05:19:05.878Z,6.80
2018-08-09T05:20:05.882Z,7.10
2018-08-09T05:21:05.878Z,6.80
2018-08-09T05:22:05.887Z,6.80
2018-08-09T05:23:05.908Z,7.30
2018-08-09T05:24:05.881Z,7.10
2018-08-09T05:25:05.888Z,6.90
2018-08-09T05:26:05.881Z,6.40
2018-08-09T05:27:05.879Z,7.30
2018-08-09T05:28:05.882Z,6.70
2018-08-09T05:29:05.881Z,7.10
2018-08-09T05:30:05.892Z,6.80
2018-08-09T05:31:05.885Z,6.40
2018-08-09T05:32:05.883Z,6.40
2018-08-09T05:33:05.889Z,7.00
2018-08-09T05:34:05.897Z,6.80
2018-08-09T05:35:05.882Z,6.80
2018-08-09T05:36:05.890Z,6.60
2018-08-09T05:37:05.889Z,7.70
2018-08-09T05:38:05.883Z,7.20
2018-08-09T05:39:05.884Z,6.80
2018-08-09T05:40:05.883Z,6.40
2018-08-09T05:41:05.881Z,6.10
2018-08-09T05:42:05.884Z,6.50
2018-08-09T05:43:05.884Z,6.00
2018-08-09T05:44:05.887Z,6.30
2018-08-09T05:45:05.884Z,6.50
2018-08-09T05:46:05.893Z,6.40
2018-08-09T05:47:05.884Z,6.30
2018-08-09T05:48:05.886Z,6.70
2018-08-09T05:49:05.888Z,6.40
2018-08-09T05:50:05.885Z,6.60
2018-08-09T05:51:05.883Z,6.30
2018-08-09T05:52:05.884Z,6.50
2018-08-09T05:53:05.889Z,6.30
2018-08-09T05:54:05.887Z,6.70
2018-08-09T05:55:05.882Z,6.50
2018-08-09T05:56:05.887Z,7.10
2018-08-09T05:57:05.882Z,6.00
2018-08-09T05:58:05.883Z,6.10
2018-08-09T05:59:05.884Z,6.90
2018-08-09T06:00:05.884Z,7.30
2018-08-09T06:01:05.881Z,6.40
2018-08-09T06:02:05.885Z,6.90
2018-08-09T06:03:05.885Z,6.60
2018-08-09T06:04:05.882Z,6.30
2018-08-09T06:05:05.881Z,6.70
2018-08-09T06:06:05.886Z,6.80
2018-08-09T06:07:05.883Z,6.70
2018-08-09T06:08:05.885Z,7.10
2018-08-09T06:09:05.881Z,6.90
2018-08-09T06:10:05.883Z,6.90
2018-08-09T06:11:05.881Z,7.70
2018-08-09T06:12:05.883Z,7.70
2018-08-09T06:13:05.883Z,7.40
2018-08-09T06:14:05.884Z,6.70
2018-08-09T06:15:05.890Z,6.50
2018-08-09T06:16:05.880Z,6.40
2018-08-09T06:17:05.882Z,7.10
2018-08-09T06:18:05.878Z,7.00
2018-08-09T06:19:05.885Z,6.30
2018-08-09T06:20:05.884Z,6.60
2018-08-09T06:21:05.882Z,6.60
2018-08-09T06:22:05.878Z,7.20
2018-08-09T06:23:05.879Z,6.00
2018-08-09T06:24:05.879Z,6.90
2018-08-09T06:25:05.880Z,7.30
2018-08-09T06:26:05.880Z,7.20
2018-08-09T06:27:05.879Z,7.00
2018-08-09T06:28:05.880Z,7.20
2018-08-09T06:29:05.884Z,6.80
2018-08-09T06:30:05.882Z,7.50
2018-08-09T06:31:05.881Z,7.10
2018-08-09T06:32:05.881Z,7.10
2018-08-09T06:33:05.885Z,6.80
2018-08-09T06:34:05.883Z,6.80
2018-08-09T06:35:05.883Z,7.50
2018-08-09T06:36:05.884Z,6.80
2018-08-09T06:37:05.881Z,6.80
2018-08-09T06:38:05.883Z,6.90
2018-08-09T06:39:05.886Z,6.50
2018-08-09T06:40:05.888Z,6.90
2018-08-09T06:41:05.885Z,6.80
2018-08-09T06:42:05.884Z,6.80
2018-08-09T06:43:05.884Z,7.00
2018-08-09T06:44:05.886Z,7.20
2018-08-09T06:45:05.887Z,7.10
2018-08-09T06:46:05.887Z,7.30
2018-08-09T06:47:05.887Z,6.70
2018-08-09T06:48:05.893Z,6.50
2018-08-09T06:49:05.892Z,6.70
2018-08-09T06:50:05.889Z,6.60
2018-08-09T06:51:05.890Z,7.00
2018-08-09T06:52:05.898Z,6.50
2018-08-09T06:53:05.892Z,6.60
2018-08-09T06:54:05.891Z,7.30
2018-08-09T06:55:05.895Z,6.50
2018-08-09T06:56:05.901Z,6.10
2018-08-09T06:57:05.898Z,6.50
2018-08-09T06:58:05.900Z,6.50
2018-08-09T06:59:05.896Z,5.80
2018-08-09T07:00:05.897Z,6.30
2018-08-09T07:01:05.902Z,5.90
2018-08-09T07:02:05.898Z,6.90
2018-08-09T07:03:05.901Z,6.60
2018-08-09T07:04:05.905Z,6.60
2018-08-09T07:05:05.901Z,6.50
2018-08-09T07:06:05.902Z,6.00
2018-08-09T07:07:05.973Z,6.20
2018-08-09T07:08:05.905Z,6.60
2018-08-09T07:09:05.905Z,6.40
2018-08-09T07:10:05.909Z,6.20
2018-08-09T07:11:05.909Z,6.60
2018-08-09T07:12:05.908Z,6.20
2018-08-09T07:13:05.909Z,7.00
2018-08-09T07:14:05.912Z,6.20
2018-08-09T07:15:05.918Z,6.50
2018-08-09T07:16:05.916Z,6.30
2018-08-09T07:17:05.913Z,6.30
2018-08-09T07:18:05.923Z,6.00
2018-08-09T07:19:05.919Z,5.80
2018-08-09T07:20:05.920Z,6.20
2018-08-09T07:21:05.921Z,6.10
2018-08-09T07:22:05.922Z,6.40
2018-08-09T07:23:05.924Z,6.40
2018-08-09T07:24:05.930Z,6.00
2018-08-09T07:25:05.925Z,6.40
2018-08-09T07:26:05.932Z,6.20
2018-08-09T07:27:05.930Z,5.90
2018-08-09T07:28:05.931Z,7.30
2018-08-09T07:29:05.936Z,7.00
2018-08-09T07:30:05.938Z,6.20
2018-08-09T07:31:05.936Z,6.50
2018-08-09T07:32:05.943Z,6.30
2018-08-09T07:33:05.942Z,6.10
2018-08-09T07:34:05.940Z,6.10
2018-08-09T07:35:05.942Z,5.80
2018-08-09T07:36:05.945Z,5.40
2018-08-09T07:37:05.945Z,6.30
2018-08-09T07:38:05.950Z,6.60
2018-08-09T07:39:05.949Z,5.20
2018-08-09T07:40:05.950Z,5.50
2018-08-09T07:41:05.953Z,6.10
2018-08-09T07:42:05.955Z,5.50
2018-08-09T07:43:05.957Z,5.00
2018-08-09T07:44:05.959Z,5.70
2018-08-09T07:45:05.959Z,5.20
2018-08-09T07:46:05.968Z,5.80
2018-08-09T07:47:05.963Z,5.70
2018-08-09T07:48:05.968Z,5.80
2018-08-09T07:49:05.975Z,5.40
2018-08-09T07:50:05.969Z,5.60
2018-08-09T07:51:05.972Z,5.40
2018-08-09T07:52:05.975Z,5.20
2018-08-09T07:53:05.975Z,5.70
2018-08-09T07:54:05.986Z,4.60
2018-08-09T07:55:05.987Z,4.80
2018-08-09T07:56:05.984Z,5.10
2018-08-09T07:57:06.024Z,4.90
2018-08-09T07:58:05.987Z,5.00
2018-08-09T07:59:05.995Z,4.40
2018-08-09T08:00:05.999Z,5.00
2018-08-09T08:01:05.997Z,4.80
2018-08-09T08:02:05.996Z,4.90
2018-08-09T08:03:05.999Z,4.90
2018-08-09T08:04:06.000Z,5.10
2018-08-09T08:05:06.003Z,5.40
2018-08-09T08:06:06.047Z,5.50
2018-08-09T08:07:06.010Z,5.30
2018-08-09T08:08:06.015Z,4.80
2018-08-09T08:09:06.019Z,4.80
2018-08-09T08:10:06.026Z,4.80
2018-08-09T08:11:06.024Z,5.50
2018-08-09T08:12:06.025Z,4.80
2018-08-09T08:13:06.029Z,4.80
2018-08-09T08:14:06.033Z,5.30
2018-08-09T08:15:06.057Z,5.50
2018-08-09T08:16:06.037Z,5.60
2018-08-09T08:17:06.040Z,6.40
2018-08-09T08:18:06.053Z,5.90
2018-08-09T08:19:06.042Z,5.40
2018-08-09T08:20:06.048Z,5.50
2018-08-09T08:21:06.047Z,5.90
2018-08-09T08:22:06.054Z,6.00
2018-08-09T08:23:06.055Z,5.20
2018-08-09T08:24:06.061Z,5.30
2018-08-09T08:25:06.060Z,4.90
2018-08-09T08:26:06.064Z,5.40
2018-08-09T08:27:06.065Z,5.50
2018-08-09T08:28:06.069Z,5.50
2018-08-09T08:29:06.072Z,5.10
2018-08-09T08:30:06.078Z,5.40
2018-08-09T08:31:06.078Z,5.00
2018-08-09T08:32:06.082Z,5.40
2018-08-09T08:33:06.082Z,5.20
2018-08-09T08:34:06.086Z,5.40
2018-08-09T08:35:06.093Z,4.50
2018-08-09T08:36:06.100Z,4.60
2018-08-09T08:37:06.099Z,5.00
2018-08-09T08:38:06.099Z,4.90
2018-08-09T08:39:06.105Z,4.70
2018-08-09T08:40:06.110Z,4.80
2018-08-09T08:41:06.114Z,4.50
2018-08-09T08:42:06.113Z,4.70
2018-08-09T08:43:06.117Z,4.70
2018-08-09T08:44:06.118Z,5.00
2018-08-09T08:45:06.121Z,5.10
2018-08-09T08:46:06.124Z,5.00
2018-08-09T08:47:06.129Z,4.50
2018-08-09T08:48:06.132Z,4.90
2018-08-09T08:49:06.134Z,4.80
2018-08-09T08:50:06.141Z,4.30
2018-08-09T08:51:06.141Z,5.00
2018-08-09T08:52:06.147Z,4.50
2018-08-09T08:53:06.164Z,4.90
2018-08-09T08:54:06.153Z,5.60
2018-08-09T08:55:06.210Z,5.20
2018-08-09T08:56:06.160Z,4.50
2018-08-09T08:57:06.163Z,4.60
2018-08-09T08:58:06.168Z,4.80
2018-08-09T08:59:06.174Z,4.90
2018-08-09T09:00:06.175Z,4.80
2018-08-09T09:01:06.252Z,4.80
2018-08-09T09:02:06.181Z,5.00
2018-08-09T09:03:06.192Z,4.50
2018-08-09T09:04:06.190Z,5.10
2018-08-09T09:05:06.298Z,4.80
2018-08-09T09:06:06.270Z,5.10
2018-08-09T09:07:06.266Z,4.60
2018-08-09T09:08:06.208Z,5.00
2018-08-09T09:09:06.204Z,4.70
2018-08-09T09:10:06.210Z,4.50
2018-08-09T09:11:06.212Z,4.40
2018-08-09T09:12:06.223Z,4.30
2018-08-09T09:13:06.223Z,4.60
2018-08-09T09:14:06.223Z,5.00
2018-08-09T09:15:06.230Z,4.70
2018-08-09T09:16:06.233Z,4.10
2018-08-09T09:17:06.235Z,4.40
2018-08-09T09:18:06.242Z,4.70
2018-08-09T09:19:06.292Z,4.80
2018-08-09T09:20:06.246Z,4.50
2018-08-09T09:21:06.250Z,4.50
2018-08-09T09:22:06.260Z,4.80
2018-08-09T09:23:06.257Z,4.50
2018-08-09T09:24:06.263Z,4.70
2018-08-09T09:25:06.265Z,4.60
2018-08-09T09:26:06.271Z,4.60
2018-08-09T09:27:06.400Z,4.80
2018-08-09T09:28:06.279Z,4.80
2018-08-09T09:29:06.280Z,4.80
2018-08-09T09:30:06.285Z,4.60
2018-08-09T09:31:06.293Z,4.90
2018-08-09T09:32:06.295Z,4.80
2018-08-09T09:33:06.300Z,4.90
2018-08-09T09:34:06.301Z,6.50
2018-08-09T09:35:06.365Z,11.70
2018-08-09T09:36:06.313Z,7.40
2018-08-09T09:37:06.313Z,6.30
2018-08-09T09:38:06.318Z,7.60
2018-08-09T09:39:06.323Z,7.00
2018-08-09T09:40:06.327Z,6.10
2018-08-09T09:41:06.335Z,5.20
2018-08-09T09:42:06.334Z,5.50
2018-08-09T09:43:06.338Z,6.50
2018-08-09T09:44:06.343Z,5.00
2018-08-09T09:45:06.350Z,5.80
2018-08-09T09:46:06.353Z,5.70
2018-08-09T09:47:06.355Z,5.90
2018-08-09T09:48:06.359Z,6.10
2018-08-09T09:49:06.362Z,6.70
2018-08-09T09:50:06.370Z,5.00
2018-08-09T09:51:06.371Z,5.30
2018-08-09T09:52:06.374Z,5.30
2018-08-09T09:53:06.380Z,5.30
2018-08-09T09:54:06.392Z,5.50
2018-08-09T09:55:06.387Z,5.30
2018-08-09T09:56:06.437Z,4.30
2018-08-09T09:57:06.395Z,4.20
2018-08-09T09:58:06.407Z,4.70
2018-08-09T09:59:06.411Z,4.30
2018-08-09T10:00:06.409Z,5.00
2018-08-09T10:01:06.413Z,5.00
2018-08-09T10:02:06.421Z,4.60
2018-08-09T10:03:06.420Z,4.80
2018-08-09T10:04:06.425Z,4.80
2018-08-09T10:05:06.428Z,5.30
2018-08-09T10:06:06.434Z,4.80
2018-08-09T10:07:06.464Z,4.40
2018-08-09T10:08:06.442Z,4.90
2018-08-09T10:09:06.447Z,4.50
2018-08-09T10:10:06.457Z,5.80
2018-08-09T10:11:06.458Z,5.10
2018-08-09T10:12:06.460Z,5.10
2018-08-09T10:13:06.467Z,5.30
2018-08-09T10:14:06.473Z,5.00
2018-08-09T10:15:06.479Z,5.30
2018-08-09T10:16:06.476Z,5.80
2018-08-09T10:17:06.481Z,5.70
2018-08-09T10:18:06.487Z,6.00
2018-08-09T10:19:06.490Z,5.00
2018-08-09T10:20:06.498Z,5.10
2018-08-09T10:21:06.498Z,5.20
2018-08-09T10:22:06.507Z,5.20
2018-08-09T10:23:06.511Z,5.30
2018-08-09T10:24:06.513Z,5.30
2018-08-09T10:25:06.516Z,5.30
2018-08-09T10:26:06.521Z,5.40
2018-08-09T10:27:06.528Z,4.40
2018-08-09T10:28:06.531Z,5.10
2018-08-09T10:29:06.540Z,5.60
2018-08-09T10:30:06.544Z,5.00
2018-08-09T10:31:06.548Z,5.50
2018-08-09T10:32:06.548Z,4.80
2018-08-09T10:33:06.554Z,5.00
2018-08-09T10:34:06.558Z,4.70
2018-08-09T10:35:06.561Z,4.50
2018-08-09T10:36:06.576Z,4.60
2018-08-09T10:37:06.572Z,5.00
2018-08-09T10:38:06.578Z,5.20
2018-08-09T10:39:06.587Z,5.20
2018-08-09T10:40:06.587Z,5.10
2018-08-09T10:41:06.592Z,5.10
2018-08-09T10:42:06.597Z,5.30
2018-08-09T10:43:06.602Z,5.00
2018-08-09T10:44:06.610Z,5.20
2018-08-09T10:45:06.608Z,5.30
2018-08-09T10:46:06.615Z,5.00
2018-08-09T10:47:06.621Z,5.00
2018-08-09T10:48:06.624Z,4.90
2018-08-09T10:49:06.677Z,4.80
2018-08-09T10:50:06.633Z,4.90
2018-08-09T10:51:06.641Z,5.10
2018-08-09T10:52:06.645Z,5.20
2018-08-09T10:53:06.649Z,5.40
2018-08-09T10:54:06.655Z,5.20
2018-08-09T10:55:06.655Z,5.10
2018-08-09T10:56:06.664Z,5.20
2018-08-09T10:57:06.663Z,5.80
2018-08-09T10:58:06.670Z,5.40
2018-08-09T10:59:06.673Z,5.20
2018-08-09T11:00:06.681Z,5.00
2018-08-09T11:01:06.683Z,5.10
2018-08-09T11:02:06.689Z,5.70
2018-08-09T11:03:06.698Z,5.40
2018-08-09T11:04:06.703Z,5.30
2018-08-09T11:05:06.703Z,5.10
2018-08-09T11:06:06.707Z,5.20
2018-08-09T11:07:06.712Z,4.90
2018-08-09T11:08:06.718Z,5.20
2018-08-09T11:09:06.726Z,5.20
2018-08-09T11:10:06.729Z,5.00
2018-08-09T11:11:06.737Z,5.10
2018-08-09T11:12:06.738Z,5.70
2018-08-09T11:13:06.743Z,6.40
2018-08-09T11:14:06.748Z,6.00
2018-08-09T11:15:06.797Z,5.40
2018-08-09T11:16:06.759Z,5.60
2018-08-09T11:17:06.771Z,5.50
2018-08-09T11:18:06.769Z,5.60
2018-08-09T11:19:06.774Z,5.10
2018-08-09T11:20:06.777Z,4.70
2018-08-09T11:21:06.786Z,5.80
2018-08-09T11:22:06.791Z,5.50
2018-08-09T11:23:06.794Z,4.70
2018-08-09T11:24:06.804Z,4.60
2018-08-09T11:25:06.803Z,4.40
2018-08-09T11:26:06.810Z,4.80
2018-08-09T11:27:06.812Z,5.00
2018-08-09T11:28:06.822Z,4.80
2018-08-09T11:29:06.935Z,4.50
2018-08-09T11:30:06.827Z,4.40
2018-08-09T11:31:06.946Z,4.50
2018-08-09T11:32:06.839Z,4.30
2018-08-09T11:33:06.846Z,4.30
2018-08-09T11:34:06.857Z,4.50
2018-08-09T11:35:06.854Z,4.50
2018-08-09T11:36:06.858Z,4.70
2018-08-09T11:37:06.862Z,4.40
2018-08-09T11:38:06.869Z,4.50
2018-08-09T11:39:06.872Z,4.10
2018-08-09T11:40:06.878Z,3.80
2018-08-09T11:41:06.886Z,4.40
2018-08-09T11:42:06.899Z,4.10
2018-08-09T11:43:06.953Z,4.40
2018-08-09T11:44:06.905Z,4.90
2018-08-09T11:45:06.907Z,4.80
2018-08-09T11:46:06.911Z,4.50
2018-08-09T11:47:06.914Z,4.90
2018-08-09T11:48:06.920Z,4.40
2018-08-09T11:49:06.955Z,4.50
2018-08-09T11:50:06.933Z,4.70
2018-08-09T11:51:06.939Z,4.40
2018-08-09T11:52:06.944Z,4.60
2018-08-09T11:53:06.947Z,4.50
2018-08-09T11:54:06.953Z,4.50
2018-08-09T11:55:06.961Z,4.70
2018-08-09T11:56:07.021Z,4.60
2018-08-09T11:57:07.022Z,4.60
2018-08-09T11:58:06.973Z,4.50
2018-08-09T11:59:06.983Z,5.00
2018-08-09T12:00:06.986Z,5.10
2018-08-09T12:01:06.994Z,5.00
2018-08-09T12:02:06.996Z,4.50
2018-08-09T12:03:07.003Z,4.50
2018-08-09T12:04:07.011Z,4.40
2018-08-09T12:05:07.013Z,4.50
2018-08-09T12:06:07.023Z,5.10
2018-08-09T12:07:07.051Z,4.40
2018-08-09T12:08:07.035Z,4.00
2018-08-09T12:09:07.034Z,4.00
2018-08-09T12:10:07.041Z,4.10
2018-08-09T12:11:07.049Z,4.20
2018-08-09T12:12:07.058Z,3.70
2018-08-09T12:13:07.063Z,3.50
2018-08-09T12:14:07.064Z,3.30
2018-08-09T12:15:07.113Z,3.50
2018-08-09T12:16:07.080Z,2.90
2018-08-09T12:17:07.083Z,3.00
2018-08-09T12:18:07.103Z,2.80
2018-08-09T12:19:07.092Z,2.60
2018-08-09T12:20:07.100Z,2.70
2018-08-09T12:21:07.179Z,3.80
2018-08-09T12:22:07.150Z,3.00
2018-08-09T12:23:07.119Z,2.70
2018-08-09T12:24:07.121Z,2.70
2018-08-09T12:25:07.130Z,3.10
2018-08-09T12:26:07.138Z,3.30
2018-08-09T12:27:07.140Z,2.90
2018-08-09T12:28:07.142Z,3.40
2018-08-09T12:29:07.148Z,3.30
2018-08-09T12:30:07.157Z,3.10
2018-08-09T12:31:07.162Z,2.90
2018-08-09T12:32:07.174Z,3.00
2018-08-09T12:33:07.178Z,3.20
2018-08-09T12:34:07.181Z,2.80
2018-08-09T12:35:07.183Z,2.60
2018-08-09T12:36:07.191Z,2.30
2018-08-09T12:37:07.196Z,2.50
2018-08-09T12:38:07.203Z,2.60
2018-08-09T12:39:07.206Z,3.10
2018-08-09T12:40:07.209Z,2.70
2018-08-09T12:41:07.214Z,2.70
2018-08-09T12:42:07.219Z,2.70
2018-08-09T12:43:07.230Z,2.80
2018-08-09T12:44:07.229Z,2.70
2018-08-09T12:45:07.238Z,3.10
2018-08-09T12:46:07.240Z,2.90
2018-08-09T12:47:07.247Z,2.60
2018-08-09T12:48:07.252Z,2.60
2018-08-09T12:49:07.256Z,3.00
2018-08-09T12:50:07.263Z,2.70
2018-08-09T12:51:07.273Z,2.80
2018-08-09T12:52:07.278Z,2.90
2018-08-09T12:53:07.277Z,3.20
2018-08-09T12:54:07.283Z,2.80
2018-08-09T12:55:07.294Z,3.10
2018-08-09T12:56:07.295Z,4.20
2018-08-09T12:57:07.297Z,4.70
2018-08-09T12:58:07.304Z,4.50
2018-08-09T12:59:07.309Z,4.20
2018-08-09T13:00:07.469Z,4.40
2018-08-09T13:01:07.319Z,4.70
2018-08-09T13:02:07.326Z,4.30
2018-08-09T13:03:07.332Z,4.30
2018-08-09T13:04:07.340Z,4.20
2018-08-09T13:05:07.340Z,4.20
2018-08-09T13:06:07.346Z,4.40
2018-08-09T13:07:07.351Z,4.70
2018-08-09T13:08:07.356Z,4.10
2018-08-09T13:09:07.369Z,3.80
2018-08-09T13:10:07.365Z,4.20
2018-08-09T13:11:07.384Z,4.30
2018-08-09T13:12:07.373Z,4.30
2018-08-09T13:13:07.382Z,3.80
2018-08-09T13:14:07.385Z,4.30
2018-08-09T13:15:07.390Z,4.00
2018-08-09T13:16:07.390Z,4.00
2018-08-09T13:17:07.393Z,3.70
2018-08-09T13:18:07.401Z,4.70